RYR1TR ESGG-LKPR
Flight info
| Callsign | RYR1TR |
|---|---|
| Flight time | 1h 21m |
| Altitude | 37000 |
| Route | TOPLA L996 ERNOV DCT SALLO DCT USEDU DCT PADKU DCT GERGA DCT OBANI M725 HDO DCT GOLOP |
| Aircraft | B738/M-SDE2E3FGHIRWXY/LB1 |
Departure
| Time | 2026-05-04 08:57 |
|---|---|
| Airport | Göteborg Landvetter Airport (ESGG) |
Arrival
| Time | 2026-05-04 10:19 |
|---|---|
| Airport | Václav Havel Airport Prague (LKPR) |
| Time | Latitude | Longitude | Altitude | Speed | Heading |
|---|---|---|---|---|---|
| 2026-05-04 08:35 | 57.67119 | 12.29392 | 511 ft | 0 kts | 251° |
| 2026-05-04 08:48 | 57.67124 | 12.29420 | 511 ft | 4 kts | 261° |
| 2026-05-04 08:49 | 57.67122 | 12.29464 | 511 ft | 4 kts | 312° |
| 2026-05-04 08:50 | 57.67112 | 12.29472 | 511 ft | 0 kts | 26° |
| 2026-05-04 08:52 | 57.67114 | 12.29475 | 511 ft | 2 kts | 26° |
| 2026-05-04 08:53 | 57.67146 | 12.29504 | 511 ft | 8 kts | 26° |
| 2026-05-04 08:54 | 57.67455 | 12.29274 | 513 ft | 0 kts | 281° |
| 2026-05-04 08:55 | 57.67455 | 12.29273 | 513 ft | 1 kts | 281° |
| 2026-05-04 08:57 | 57.63362 | 12.25259 | 2898 ft | 161 kts | 214° |
| 2026-05-04 09:01 | 57.38505 | 12.27193 | 11137 ft | 345 kts | 176° |
| 2026-05-04 09:01 | 57.36116 | 12.27847 | 11935 ft | 348 kts | 176° |
| 2026-05-04 09:01 | 57.33706 | 12.28506 | 12805 ft | 350 kts | 177° |
| 2026-05-04 09:01 | 57.31287 | 12.29162 | 13629 ft | 353 kts | 177° |
| 2026-05-04 09:02 | 57.28846 | 12.29820 | 14323 ft | 357 kts | 177° |
| 2026-05-04 09:02 | 57.26374 | 12.30484 | 15023 ft | 360 kts | 177° |
| 2026-05-04 09:02 | 57.23911 | 12.31144 | 15733 ft | 363 kts | 177° |
| 2026-05-04 09:02 | 57.21389 | 12.31819 | 16435 ft | 367 kts | 177° |
| 2026-05-04 09:03 | 57.18841 | 12.32500 | 17127 ft | 371 kts | 177° |
| 2026-05-04 09:03 | 57.16268 | 12.33185 | 17816 ft | 374 kts | 177° |
| 2026-05-04 09:03 | 57.13678 | 12.33874 | 18450 ft | 378 kts | 177° |
| 2026-05-04 09:03 | 57.11063 | 12.34547 | 19048 ft | 381 kts | 178° |
| 2026-05-04 09:04 | 57.08428 | 12.35201 | 19657 ft | 383 kts | 178° |
| 2026-05-04 09:04 | 57.05776 | 12.35852 | 20261 ft | 385 kts | 178° |
| 2026-05-04 09:04 | 57.03107 | 12.36505 | 20849 ft | 388 kts | 178° |
| 2026-05-04 09:04 | 57.00417 | 12.37163 | 21422 ft | 391 kts | 178° |
| 2026-05-04 09:05 | 56.97739 | 12.37821 | 21987 ft | 394 kts | 178° |
| 2026-05-04 09:05 | 56.95013 | 12.38491 | 22547 ft | 397 kts | 178° |
| 2026-05-04 09:05 | 56.92225 | 12.39176 | 23102 ft | 400 kts | 178° |
| 2026-05-04 09:05 | 56.89453 | 12.39857 | 23600 ft | 403 kts | 178° |
| 2026-05-04 09:06 | 56.86674 | 12.40539 | 24062 ft | 405 kts | 178° |
| 2026-05-04 09:07 | 56.66782 | 12.45393 | 27016 ft | 420 kts | 178° |
| 2026-05-04 09:08 | 56.63880 | 12.46097 | 27405 ft | 422 kts | 178° |
| 2026-05-04 09:08 | 56.60960 | 12.46804 | 27789 ft | 424 kts | 178° |
| 2026-05-04 09:08 | 56.58020 | 12.47515 | 28160 ft | 427 kts | 178° |
| 2026-05-04 09:08 | 56.55109 | 12.48217 | 28527 ft | 429 kts | 178° |
| 2026-05-04 09:09 | 56.52148 | 12.48931 | 28866 ft | 431 kts | 178° |
| 2026-05-04 09:09 | 56.49163 | 12.49650 | 29209 ft | 433 kts | 178° |
| 2026-05-04 09:09 | 56.46161 | 12.50372 | 29548 ft | 435 kts | 178° |
| 2026-05-04 09:09 | 56.43148 | 12.51094 | 29869 ft | 437 kts | 178° |
| 2026-05-04 09:10 | 56.40114 | 12.51822 | 30149 ft | 439 kts | 178° |
| 2026-05-04 09:10 | 56.37082 | 12.52553 | 30473 ft | 439 kts | 178° |
| 2026-05-04 09:10 | 56.34058 | 12.53284 | 30869 ft | 438 kts | 178° |
| 2026-05-04 09:10 | 56.31045 | 12.54012 | 31266 ft | 436 kts | 178° |
| 2026-05-04 09:11 | 56.28037 | 12.54736 | 31616 ft | 435 kts | 178° |
| 2026-05-04 09:11 | 56.25037 | 12.55455 | 31959 ft | 435 kts | 178° |
| 2026-05-04 09:11 | 56.22037 | 12.56173 | 32310 ft | 434 kts | 178° |
| 2026-05-04 09:11 | 56.19084 | 12.56879 | 32655 ft | 433 kts | 178° |
| 2026-05-04 09:12 | 56.16113 | 12.57886 | 32991 ft | 438 kts | 171° |
| 2026-05-04 09:12 | 56.13173 | 12.59684 | 33328 ft | 442 kts | 166° |
| 2026-05-04 09:14 | 55.93064 | 12.73285 | 35100 ft | 443 kts | 166° |
| 2026-05-04 09:14 | 55.90178 | 12.75195 | 35312 ft | 443 kts | 166° |
| 2026-05-04 09:14 | 55.87277 | 12.77110 | 35526 ft | 443 kts | 165° |
| 2026-05-04 09:14 | 55.84379 | 12.79021 | 35767 ft | 443 kts | 165° |
| 2026-05-04 09:15 | 55.81476 | 12.80932 | 35978 ft | 444 kts | 165° |
| 2026-05-04 09:15 | 55.78577 | 12.82837 | 36182 ft | 444 kts | 165° |
| 2026-05-04 09:15 | 55.75680 | 12.84739 | 36413 ft | 444 kts | 165° |
| 2026-05-04 09:15 | 55.72783 | 12.86638 | 36617 ft | 444 kts | 165° |
| 2026-05-04 09:17 | 55.49672 | 13.01684 | 36884 ft | 437 kts | 165° |
| 2026-05-04 09:18 | 55.43965 | 13.05369 | 36885 ft | 435 kts | 165° |
| 2026-05-04 09:18 | 55.38283 | 13.09025 | 36891 ft | 434 kts | 165° |
| 2026-05-04 09:19 | 55.33568 | 13.12051 | 36889 ft | 434 kts | 166° |
| 2026-05-04 09:19 | 55.26966 | 13.16275 | 36896 ft | 434 kts | 166° |
| 2026-05-04 09:20 | 55.22205 | 13.19312 | 36904 ft | 435 kts | 166° |
| 2026-05-04 09:20 | 55.16543 | 13.22915 | 36905 ft | 436 kts | 166° |
| 2026-05-04 09:21 | 55.10832 | 13.26538 | 36913 ft | 437 kts | 166° |
| 2026-05-04 09:21 | 55.05102 | 13.30163 | 36916 ft | 438 kts | 166° |
| 2026-05-04 09:22 | 54.99375 | 13.33775 | 36922 ft | 438 kts | 166° |
| 2026-05-04 09:22 | 54.93640 | 13.37382 | 36918 ft | 438 kts | 166° |
| 2026-05-04 09:23 | 54.87913 | 13.40951 | 36922 ft | 437 kts | 166° |
| 2026-05-04 09:23 | 54.82175 | 13.44477 | 36923 ft | 436 kts | 166° |
| 2026-05-04 09:25 | 54.59401 | 13.58387 | 36931 ft | 432 kts | 166° |
| 2026-05-04 09:26 | 54.53742 | 13.61820 | 36934 ft | 431 kts | 166° |
| 2026-05-04 09:26 | 54.48083 | 13.65243 | 36936 ft | 431 kts | 166° |
| 2026-05-04 09:27 | 54.42459 | 13.68634 | 36939 ft | 431 kts | 166° |
| 2026-05-04 09:27 | 54.36797 | 13.72039 | 36946 ft | 431 kts | 166° |
| 2026-05-04 09:28 | 54.31132 | 13.75435 | 36943 ft | 431 kts | 166° |
| 2026-05-04 09:28 | 54.25459 | 13.78827 | 36945 ft | 432 kts | 166° |
| 2026-05-04 09:29 | 54.19786 | 13.82209 | 36945 ft | 432 kts | 166° |
| 2026-05-04 09:29 | 54.14104 | 13.85587 | 36949 ft | 433 kts | 166° |
| 2026-05-04 09:30 | 54.08407 | 13.88965 | 36951 ft | 434 kts | 166° |
| 2026-05-04 09:30 | 54.02688 | 13.92347 | 36948 ft | 434 kts | 166° |
| 2026-05-04 09:31 | 53.96953 | 13.95680 | 36953 ft | 433 kts | 170° |
| 2026-05-04 09:31 | 53.91083 | 13.97044 | 36958 ft | 422 kts | 184° |
| 2026-05-04 09:32 | 53.85206 | 13.97196 | 36947 ft | 423 kts | 184° |
| 2026-05-04 09:34 | 53.61631 | 13.98108 | 36955 ft | 424 kts | 183° |
| 2026-05-04 09:34 | 53.55759 | 13.98354 | 36959 ft | 424 kts | 183° |
| 2026-05-04 09:35 | 53.49847 | 13.98631 | 36962 ft | 424 kts | 183° |
| 2026-05-04 09:35 | 53.43942 | 13.98916 | 36957 ft | 425 kts | 183° |
| 2026-05-04 09:37 | 53.20348 | 14.00030 | 36968 ft | 424 kts | 183° |
| 2026-05-04 09:38 | 53.14446 | 14.00306 | 36970 ft | 424 kts | 183° |
| 2026-05-04 09:38 | 53.08549 | 14.00580 | 36963 ft | 424 kts | 183° |
| 2026-05-04 09:39 | 53.02645 | 14.00855 | 36971 ft | 424 kts | 183° |
| 2026-05-04 09:39 | 52.96747 | 14.01128 | 36981 ft | 424 kts | 183° |
| 2026-05-04 09:40 | 52.90841 | 14.01401 | 36979 ft | 424 kts | 183° |
| 2026-05-04 09:40 | 52.84947 | 14.01672 | 36970 ft | 424 kts | 183° |
| 2026-05-04 09:42 | 52.61407 | 14.02750 | 36974 ft | 423 kts | 183° |
| 2026-05-04 09:43 | 52.55522 | 14.03654 | 36987 ft | 426 kts | 177° |
| 2026-05-04 09:43 | 52.49648 | 14.04986 | 36982 ft | 426 kts | 177° |
| 2026-05-04 09:44 | 52.43777 | 14.06280 | 36984 ft | 425 kts | 177° |
| 2026-05-04 09:46 | 52.20351 | 14.11178 | 36993 ft | 425 kts | 177° |
| 2026-05-04 09:46 | 52.14480 | 14.12382 | 36993 ft | 425 kts | 177° |
| 2026-05-04 09:47 | 52.08610 | 14.13584 | 36995 ft | 425 kts | 177° |
| 2026-05-04 09:49 | 51.85121 | 14.18400 | 37001 ft | 426 kts | 177° |
| 2026-05-04 09:51 | 51.64523 | 14.22630 | 35369 ft | 422 kts | 177° |
| 2026-05-04 09:51 | 51.61620 | 14.23218 | 34944 ft | 419 kts | 178° |
| 2026-05-04 09:51 | 51.58735 | 14.23802 | 34527 ft | 415 kts | 178° |
| 2026-05-04 09:51 | 51.55874 | 14.24380 | 34109 ft | 412 kts | 178° |
| 2026-05-04 09:52 | 51.53046 | 14.24950 | 33657 ft | 409 kts | 178° |
| 2026-05-04 09:52 | 51.50214 | 14.25520 | 33202 ft | 406 kts | 178° |
| 2026-05-04 09:52 | 51.47420 | 14.26081 | 32778 ft | 403 kts | 177° |
| 2026-05-04 09:52 | 51.44578 | 14.26651 | 32362 ft | 399 kts | 177° |
| 2026-05-04 09:53 | 51.41860 | 14.27194 | 31955 ft | 396 kts | 177° |
| 2026-05-04 09:53 | 51.39066 | 14.27752 | 31558 ft | 393 kts | 177° |
| 2026-05-04 09:53 | 51.36354 | 14.28292 | 31164 ft | 390 kts | 177° |
| 2026-05-04 09:53 | 51.33669 | 14.28827 | 30783 ft | 388 kts | 177° |
| 2026-05-04 09:54 | 51.30990 | 14.29360 | 30395 ft | 386 kts | 177° |
| 2026-05-04 09:54 | 51.28325 | 14.29889 | 30002 ft | 384 kts | 177° |
| 2026-05-04 09:54 | 51.26573 | 14.30237 | 29707 ft | 382 kts | 177° |
| 2026-05-04 09:54 | 51.23092 | 14.30927 | 29153 ft | 378 kts | 177° |
| 2026-05-04 09:55 | 51.20474 | 14.31446 | 28747 ft | 375 kts | 177° |
| 2026-05-04 09:55 | 51.17921 | 14.31951 | 28371 ft | 372 kts | 177° |
| 2026-05-04 09:55 | 51.16193 | 14.32293 | 28090 ft | 371 kts | 176° |
| 2026-05-04 09:55 | 51.13665 | 14.32792 | 27731 ft | 368 kts | 176° |
| 2026-05-04 09:56 | 51.11136 | 14.33292 | 27332 ft | 365 kts | 176° |
| 2026-05-04 09:56 | 51.08610 | 14.33790 | 26943 ft | 363 kts | 176° |
| 2026-05-04 09:56 | 51.06102 | 14.34285 | 26566 ft | 361 kts | 176° |
| 2026-05-04 09:56 | 51.03608 | 14.34776 | 26177 ft | 359 kts | 176° |
| 2026-05-04 09:57 | 51.01162 | 14.35257 | 25814 ft | 357 kts | 176° |
| 2026-05-04 09:57 | 50.98688 | 14.35744 | 25438 ft | 355 kts | 176° |
| 2026-05-04 09:57 | 50.96262 | 14.36221 | 25072 ft | 353 kts | 176° |
| 2026-05-04 09:57 | 50.93822 | 14.36700 | 24711 ft | 352 kts | 176° |
| 2026-05-04 09:58 | 50.91399 | 14.37343 | 24333 ft | 352 kts | 171° |
| 2026-05-04 09:58 | 50.89028 | 14.38204 | 23978 ft | 352 kts | 169° |
| 2026-05-04 09:58 | 50.86648 | 14.39118 | 23601 ft | 351 kts | 169° |
| 2026-05-04 10:00 | 50.70292 | 14.45280 | 20913 ft | 338 kts | 170° |
| 2026-05-04 10:00 | 50.68005 | 14.46126 | 20554 ft | 336 kts | 170° |
| 2026-05-04 10:02 | 50.53097 | 14.44037 | 18024 ft | 315 kts | 215° |
| 2026-05-04 10:04 | 50.39722 | 14.35060 | 15592 ft | 314 kts | 161° |
| 2026-05-04 10:04 | 50.37746 | 14.36556 | 15256 ft | 315 kts | 155° |
| 2026-05-04 10:04 | 50.35812 | 14.38196 | 14932 ft | 314 kts | 154° |
| 2026-05-04 10:04 | 50.33928 | 14.39828 | 14622 ft | 312 kts | 154° |
| 2026-05-04 10:05 | 50.32033 | 14.41466 | 14316 ft | 310 kts | 155° |
| 2026-05-04 10:05 | 50.30146 | 14.43088 | 14022 ft | 309 kts | 155° |
| 2026-05-04 10:05 | 50.28262 | 14.44693 | 13712 ft | 307 kts | 155° |
| 2026-05-04 10:05 | 50.26389 | 14.46280 | 13359 ft | 305 kts | 155° |
| 2026-05-04 10:06 | 50.24518 | 14.47856 | 13012 ft | 304 kts | 155° |
| 2026-05-04 10:06 | 50.22651 | 14.49424 | 12680 ft | 302 kts | 155° |
| 2026-05-04 10:06 | 50.20821 | 14.50958 | 12342 ft | 301 kts | 155° |
| 2026-05-04 10:08 | 50.10074 | 14.59936 | 10101 ft | 286 kts | 155° |
| 2026-05-04 10:08 | 50.08320 | 14.61395 | 9585 ft | 284 kts | 154° |
| 2026-05-04 10:08 | 50.06564 | 14.62857 | 9150 ft | 288 kts | 154° |
| 2026-05-04 10:08 | 50.04775 | 14.64346 | 8715 ft | 290 kts | 154° |
| 2026-05-04 10:09 | 50.03015 | 14.65808 | 8644 ft | 278 kts | 154° |
| 2026-05-04 10:09 | 50.01380 | 14.67168 | 8769 ft | 273 kts | 154° |
| 2026-05-04 10:09 | 49.99704 | 14.68790 | 8089 ft | 292 kts | 139° |
| 2026-05-04 10:09 | 49.98387 | 14.71248 | 7490 ft | 296 kts | 128° |
| 2026-05-04 10:10 | 49.96945 | 14.73507 | 6859 ft | 296 kts | 150° |
| 2026-05-04 10:10 | 49.95024 | 14.74552 | 6274 ft | 294 kts | 177° |
| 2026-05-04 10:10 | 49.93028 | 14.74212 | 5679 ft | 293 kts | 201° |
| 2026-05-04 10:10 | 49.91308 | 14.72596 | 4995 ft | 293 kts | 226° |
| 2026-05-04 10:11 | 49.90254 | 14.69940 | 4593 ft | 282 kts | 258° |
| 2026-05-04 10:11 | 49.90366 | 14.67169 | 5035 ft | 244 kts | 292° |
| 2026-05-04 10:11 | 49.91268 | 14.65107 | 5357 ft | 222 kts | 308° |
| 2026-05-04 10:11 | 49.92225 | 14.63246 | 5798 ft | 217 kts | 306° |
| 2026-05-04 10:12 | 49.93133 | 14.61356 | 6450 ft | 220 kts | 305° |
| 2026-05-04 10:12 | 49.94111 | 14.59272 | 6017 ft | 255 kts | 304° |
| 2026-05-04 10:12 | 49.95158 | 14.57022 | 5663 ft | 263 kts | 306° |
| 2026-05-04 10:12 | 49.96250 | 14.54788 | 5378 ft | 256 kts | 307° |
| 2026-05-04 10:13 | 49.97316 | 14.52590 | 5020 ft | 254 kts | 305° |
| 2026-05-04 10:13 | 49.98362 | 14.50416 | 4720 ft | 244 kts | 306° |
| 2026-05-04 10:13 | 49.99357 | 14.48345 | 4337 ft | 233 kts | 306° |
| 2026-05-04 10:13 | 50.00300 | 14.46363 | 4056 ft | 222 kts | 306° |
| 2026-05-04 10:14 | 50.01205 | 14.44478 | 3775 ft | 213 kts | 307° |
| 2026-05-04 10:14 | 50.02057 | 14.42701 | 3502 ft | 203 kts | 307° |
| 2026-05-04 10:16 | 50.07067 | 14.32289 | 1903 ft | 149 kts | 307° |
| 2026-05-04 10:16 | 50.07659 | 14.30962 | 1755 ft | 149 kts | 310° |
| 2026-05-04 10:16 | 50.08315 | 14.29675 | 1490 ft | 151 kts | 307° |
| 2026-05-04 10:16 | 50.08933 | 14.28395 | 1325 ft | 147 kts | 308° |
| 2026-05-04 10:17 | 50.09541 | 14.27183 | 1215 ft | 134 kts | 305° |
| 2026-05-04 10:17 | 50.10003 | 14.26195 | 1189 ft | 92 kts | 307° |
| 2026-05-04 10:19 | 50.10466 | 14.25565 | 1179 ft | 0 kts | 79° |
| 2026-05-04 10:19 | 50.10467 | 14.25575 | 1179 ft | 3 kts | 77° |
| 2026-05-04 10:19 | 50.10476 | 14.25629 | 1181 ft | 8 kts | 78° |
| 2026-05-04 10:19 | 50.10512 | 14.25705 | 1181 ft | 11 kts | 36° |
| 2026-05-04 10:20 | 50.10580 | 14.25775 | 1181 ft | 11 kts | 34° |
| 2026-05-04 10:20 | 50.10661 | 14.25861 | 1175 ft | 18 kts | 34° |